Central Oregon RPC :: PAISLEY B

liberation: 2020-08-08  07:15     latitude: 42.711350     longitude: -120.560250 270 birds
# LOFT PRING MILES ARRIVAL SPEED ToWin
1 STEELE LOFT AU20-JEDD-14776 116.355 2020-08-08 09:52:26.223 1437.721 00:00:00
2 RUETER FAMILY LOFT AU20-CORP-4534 143.014 2020-08-08 10:25:16.715 1436.028 00:00:12
3 RUETER FAMILY LOFT AU20-CORP-4525 143.014 2020-08-08 10:25:18.720 1435.754 00:00:14
4 RUETER FAMILY LOFT AU20-CORP-4622 143.014 2020-08-08 10:25:20.337 1435.534 00:00:16
5 RUETER FAMILY LOFT AU20-CORP-4574 143.014 2020-08-08 10:25:21.888 1435.322 00:00:18
6 RUETER FAMILY LOFT AU20-CORP-4559 143.014 2020-08-08 10:25:24.756 1434.931 00:00:20
7 RUETER FAMILY LOFT AU20-CORP-4612 143.014 2020-08-08 10:25:30.195 1434.190 00:00:26
8 RUETER FAMILY LOFT AU20-CORP-4593 143.014 2020-08-08 10:25:37.691 1433.170 00:00:33
9 RUETER FAMILY LOFT AU20-CORP-4579 143.014 2020-08-08 10:25:42.552 1432.509 00:00:38
10 ROCKY TOP AU20-CORP-4400 108.983 2020-08-08 09:44:58.587 1421.065 00:01:34
11 ROCKY TOP AU20-ARPU-28101 108.983 2020-08-08 09:45:00.734 1420.689 00:01:36
12 ROCKY TOP AU20-TAC-2786 108.983 2020-08-08 09:45:01.107 1420.623 00:01:36
13 ROCKY TOP AU20-CORP-4416 108.983 2020-08-08 09:45:01.694 1420.520 00:01:37
14 ROCKY TOP AU20-CORP-4476 108.983 2020-08-08 09:45:02.066 1420.455 00:01:37
15 ROCKY TOP AU20-ARPU-28107 108.983 2020-08-08 09:45:02.932 1420.303 00:01:38
16 STEELE LOFT AU20-CORP-5090 116.355 2020-08-08 09:54:11.492 1420.228 00:01:45
17 ROCKY TOP AU20-ARPU-28128 108.983 2020-08-08 09:45:04.770 1419.981 00:01:40
18 ROCKY TOP AU20-JSC-1299 108.983 2020-08-08 09:45:05.017 1419.938 00:01:40
19 ROCKY TOP AU20-CORP-4445 108.983 2020-08-08 09:45:05.552 1419.844 00:01:41
20 ROCKY TOP AU20-CORP-4405 108.983 2020-08-08 09:45:05.955 1419.774 00:01:41
21 ROCKY TOP AU20-CORP-4411 108.983 2020-08-08 09:45:06.480 1419.682 00:01:42
22 ROCKY TOP AU20-ARPU-28106 108.983 2020-08-08 09:45:07.909 1419.431 00:01:43
23 ROCKY TOP AU20-PNW-2503 108.983 2020-08-08 09:45:08.368 1419.351 00:01:44
24 ROCKY TOP AU20-TAC-2753 108.983 2020-08-08 09:45:10.382 1418.999 00:01:46
25 ROCKY TOP AU20-CORP-4403 108.983 2020-08-08 09:45:10.939 1418.901 00:01:46
26 ROCKY TOP AU20-CORP-4450 108.983 2020-08-08 09:45:11.721 1418.764 00:01:47
27 ROCKY TOP AU20-ARPU-28131 108.983 2020-08-08 09:45:12.794 1418.577 00:01:48
28 ROCKY TOP AU20-CORP-4442 108.983 2020-08-08 09:45:14.240 1418.324 00:01:49
29 ROCKY TOP AU20-CORP-4461 108.983 2020-08-08 09:45:14.461 1418.285 00:01:50
30 ROCKY TOP AU20-ARPU-28126 108.983 2020-08-08 09:45:15.795 1418.052 00:01:51
31 ROCKY TOP AU20-CORP-4402 108.983 2020-08-08 09:45:16.585 1417.914 00:01:52
32 ROCKY TOP AU20-CORP-4432 108.983 2020-08-08 09:45:17.913 1417.682 00:01:53
33 ROCKY TOP AU20-TAC-2787 108.983 2020-08-08 09:45:19.101 1417.475 00:01:54
34 ROCKY TOP AU20-CORP-4455 108.983 2020-08-08 09:45:19.466 1417.411 00:01:55
35 ROCKY TOP AU20-CORP-4401 108.983 2020-08-08 09:45:20.051 1417.309 00:01:55
36 ROCKY TOP AU20-CORP-4472 108.983 2020-08-08 09:45:20.499 1417.231 00:01:56
37 ROCKY TOP AU20-CORP-4452 108.983 2020-08-08 09:45:26.042 1416.264 00:02:01
38 ROCKY TOP AU20-CORP-4463 108.983 2020-08-08 09:45:26.544 1416.176 00:02:02
39 ROCKY TOP AU20-TAC-2754 108.983 2020-08-08 09:45:26.658 1416.157 00:02:02
40 ROCKY TOP AU20-CORP-4404 108.983 2020-08-08 09:45:38.503 1414.096 00:02:14
41 ROCKY TOP AU20-ARPU-28105 108.983 2020-08-08 09:45:53.318 1411.526 00:02:29
42 ROCKY TOP AU20-CORP-4475 108.983 2020-08-08 09:45:54.905 1411.251 00:02:30
43 RUETER FAMILY LOFT AU20-CORP-4518 143.014 2020-08-08 10:28:21.823 1411.189 00:03:17
44 STEELE LOFT AU20-JEDD-14783 116.355 2020-08-08 09:55:11.433 1410.455 00:02:45
45 STEELE LOFT AU20-CORP-5034 116.355 2020-08-08 09:55:13.468 1410.126 00:02:47
46 STEELE LOFT AU20-CORP-5086 116.355 2020-08-08 09:55:13.844 1410.065 00:02:48
47 STEELE LOFT AU20-JEDD-14775 116.355 2020-08-08 09:55:14.443 1409.968 00:02:48
48 RUETER FAMILY LOFT AU20-CORP-4556 143.014 2020-08-08 10:29:26.133 1402.760 00:04:22
49 RUETER FAMILY LOFT AU20-CORP-4583 143.014 2020-08-08 10:29:31.382 1402.076 00:04:27
50 RUETER FAMILY LOFT AU20-CORP-4558 143.014 2020-08-08 10:29:33.190 1401.841 00:04:29
51 RUETER FAMILY LOFT AU20-CORP-4580 143.014 2020-08-08 10:29:57.311 1398.709 00:04:53
52 RUETER FAMILY LOFT AU20-CORP-4623 143.014 2020-08-08 10:30:00.392 1398.310 00:04:56
53 RUETER FAMILY LOFT AU20-CORP-4553 143.014 2020-08-08 10:30:36.454 1393.657 00:05:32
54 RUETER FAMILY LOFT AU20-CORP-4658 143.014 2020-08-08 10:30:48.385 1392.124 00:05:44
55 RUETER FAMILY LOFT AU20-CORP-4569 143.014 2020-08-08 10:30:56.349 1391.103 00:05:52
56 STEELE LOFT AU20-CORP-5088 116.355 2020-08-08 09:57:30.414 1388.307 00:05:04
57 STEELE LOFT AU20-CORP-5038 116.355 2020-08-08 09:57:33.856 1387.767 00:05:08
58 STEELE LOFT AU20-CORP-5084 116.355 2020-08-08 09:57:36.463 1387.358 00:05:10
59 STEELE LOFT AU20-CORP-5043 116.355 2020-08-08 09:57:37.968 1387.123 00:05:12
60 STEELE LOFT AU20-JEDD-14785 116.355 2020-08-08 09:57:45.554 1385.936 00:05:19
61 RUETER FAMILY LOFT AU20-CORP-4516 143.014 2020-08-08 10:31:36.858 1385.931 00:06:33
62 RUETER FAMILY LOFT AU20-CORP-4683 143.014 2020-08-08 10:31:39.478 1385.598 00:06:35
63 STEELE LOFT AU20-BORD-20058 116.355 2020-08-08 09:57:50.466 1385.168 00:05:24
64 STEELE LOFT AU20-CORP-5039 116.355 2020-08-08 09:57:56.270 1384.262 00:05:30
65 STEELE LOFT AU20-CORP-5007 116.355 2020-08-08 09:58:00.505 1383.602 00:05:34
66 STEELE LOFT AU20-CORP-5083 116.355 2020-08-08 09:58:08.465 1382.363 00:05:42
67 STEELE LOFT AU20-CORP-5014 116.355 2020-08-08 09:58:09.650 1382.179 00:05:43
68 RUETER FAMILY LOFT AU20-CORP-4652 143.014 2020-08-08 10:32:48.168 1376.921 00:07:44
69 RUETER FAMILY LOFT AU20-CORP-4570 143.014 2020-08-08 10:32:57.166 1375.792 00:07:53
70 RUETER FAMILY LOFT AU20-CORP-4547 143.014 2020-08-08 10:33:17.458 1373.254 00:08:13
71 TOPIGEONUSA AU20-CORP-4373 116.048 2020-08-08 09:58:48.694 1372.506 00:06:45
72 TOPIGEONUSA AU20-CORP-4396 116.048 2020-08-08 09:58:50.799 1372.183 00:06:47
73 TOPIGEONUSA AU20-CORP-4375 116.048 2020-08-08 09:58:51.145 1372.130 00:06:47
74 TOPIGEONUSA AU20-CORP-4875 116.048 2020-08-08 09:58:52.773 1371.880 00:06:49
75 TOPIGEONUSA AU20-CORP-4374 116.048 2020-08-08 09:58:53.598 1371.753 00:06:50
76 TOPIGEONUSA AU20-CORP-4392 116.048 2020-08-08 09:59:00.008 1370.770 00:06:56
77 TOPIGEONUSA AU20-CORP-4361 116.048 2020-08-08 09:59:14.624 1368.532 00:07:11
78 TOPIGEONUSA AU20-CORP-4841 116.048 2020-08-08 09:59:19.089 1367.850 00:07:15
79 STEELE LOFT AU20-ARPU-37455 116.355 2020-08-08 09:59:56.126 1365.820 00:07:30
80 STEELE LOFT AU20-CORP-5025 116.355 2020-08-08 09:59:57.168 1365.662 00:07:31
81 STEELE LOFT AU20-JEDD-1089 116.355 2020-08-08 09:59:57.879 1365.554 00:07:32
82 STEELE LOFT AU20-CORP-5016 116.355 2020-08-08 09:59:58.255 1365.497 00:07:32
83 STEELE LOFT AU20-CORP-5085 116.355 2020-08-08 10:00:00.209 1365.200 00:07:34
84 STEELE LOFT AU20-CORP-5064 116.355 2020-08-08 10:00:00.901 1365.095 00:07:35
85 STEELE LOFT AU20-CORP-5009 116.355 2020-08-08 10:00:01.845 1364.952 00:07:36
86 STEELE LOFT IF20-EART-0056 116.355 2020-08-08 10:00:02.215 1364.896 00:07:36
87 STEELE LOFT AU20-BORD-20063 116.355 2020-08-08 10:00:02.986 1364.779 00:07:37
88 STEELE LOFT AU20-CORP-5015 116.355 2020-08-08 10:00:03.356 1364.723 00:07:37
89 STEELE LOFT AU20-CORP-5019 116.355 2020-08-08 10:00:06.316 1364.275 00:07:40
90 STEELE LOFT AU20-ARPU-37453 116.355 2020-08-08 10:00:06.964 1364.176 00:07:41
91 STEELE LOFT AU20-CORP-5033 116.355 2020-08-08 10:00:08.406 1363.958 00:07:42
92 STEELE LOFT AU20-CORP-5010 116.355 2020-08-08 10:00:08.908 1363.882 00:07:43
93 STEELE LOFT AU20-CORP-5004 116.355 2020-08-08 10:00:16.993 1362.659 00:07:51
94 STEELE LOFT AU20-BORD-20064 116.355 2020-08-08 10:00:19.206 1362.325 00:07:53
95 STEELE LOFT AU20-CORP-5011 116.355 2020-08-08 10:00:26.440 1361.233 00:08:00
96 TOPIGEONUSA AU20-CORP-4378 116.048 2020-08-08 10:00:13.117 1359.651 00:08:09
97 TOPIGEONUSA AU20-CORP-5027 116.048 2020-08-08 10:00:34.868 1356.377 00:08:31
98 ROCKY TOP AU20-CORP-4471 108.983 2020-08-08 09:51:37.901 1354.290 00:08:13
99 STEELE LOFT AU20-CORP-5035 116.355 2020-08-08 10:01:26.293 1352.266 00:09:00
100 STEELE LOFT AU20-CORP-5041 116.355 2020-08-08 10:01:31.092 1351.552 00:09:05
101 RUETER FAMILY LOFT AU20-CORP-4584 143.014 2020-08-08 10:37:16.799 1344.004 00:12:12
102 RUETER FAMILY LOFT AU20-CORP-4661 143.014 2020-08-08 10:37:25.193 1343.000 00:12:21
103 RUETER FAMILY LOFT AU20-CORP-4663 143.014 2020-08-08 10:37:30.274 1342.394 00:12:26
104 RUETER FAMILY LOFT AU20-CORP-4530 143.014 2020-08-08 10:37:31.087 1342.297 00:12:27
105 RUETER FAMILY LOFT AU20-CORP-4566 143.014 2020-08-08 10:37:34.195 1341.926 00:12:30
106 RUETER FAMILY LOFT AU20-CORP-4598 143.014 2020-08-08 10:37:57.838 1339.113 00:12:54
107 RUETER FAMILY LOFT AU20-CORP-4655 143.014 2020-08-08 10:38:28.324 1335.503 00:13:24
108 ROCKY TOP AU20-CORP-4454 108.983 2020-08-08 09:54:54.091 1323.729 00:11:29
109 AMERICAN LOFT AU20-CORP-5458 113.112 2020-08-08 10:00:41.261 1321.120 00:12:13
110 AMERICAN LOFT AU20-CORP-5508 113.112 2020-08-08 10:00:42.007 1321.011 00:12:14
111 AMERICAN LOFT AU20-CORP-5460 113.112 2020-08-08 10:00:46.124 1320.409 00:12:18
112 AMERICAN LOFT AU20-CORP-5517 113.112 2020-08-08 10:00:47.683 1320.182 00:12:20
113 AMERICAN LOFT AU20-CORP-5434 113.112 2020-08-08 10:00:50.671 1319.746 00:12:23
114 AMERICAN LOFT AU20-CORP-5431 113.112 2020-08-08 10:00:57.020 1318.821 00:12:29
115 AMERICAN LOFT AU20-CORP-5563 113.112 2020-08-08 10:00:57.137 1318.804 00:12:29
116 HENDRICKSON FAMILY LOFT IF20-EART-0025 113.192 2020-08-08 10:01:07.093 1318.293 00:12:33
117 HENDRICKSON FAMILY LOFT AU20-CORP-5268 113.192 2020-08-08 10:01:08.458 1318.095 00:12:35
118 AMERICAN LOFT AU20-CORP-5430 113.112 2020-08-08 10:01:26.222 1314.582 00:12:58
119 AMERICAN LOFT AU20-CORP-5477 113.112 2020-08-08 10:01:27.864 1314.345 00:13:00
120 AMERICAN LOFT AU20-CORP-5511 113.112 2020-08-08 10:01:31.286 1313.850 00:13:03
121 AMERICAN LOFT AU20-CORP-5516 113.112 2020-08-08 10:01:31.427 1313.830 00:13:03
122 AMERICAN LOFT AU20-CORP-5452 113.112 2020-08-08 10:01:32.313 1313.702 00:13:04
123 AMERICAN LOFT AU20-CORP-5490 113.112 2020-08-08 10:01:36.061 1313.160 00:13:08
124 AMERICAN LOFT AU20-CORP-5491 113.112 2020-08-08 10:01:36.960 1313.031 00:13:09
125 AMERICAN LOFT AU20-CORP-5513 113.112 2020-08-08 10:01:41.160 1312.425 00:13:13
126 AMERICAN LOFT AU20-CORP-5519 113.112 2020-08-08 10:01:42.305 1312.260 00:13:14
127 AMERICAN LOFT AU20-CORP-5573 113.112 2020-08-08 10:01:49.444 1311.231 00:13:21
128 AMERICAN LOFT AU20-CORP-5507 113.112 2020-08-08 10:01:50.804 1311.035 00:13:23
129 HENDRICKSON FAMILY LOFT AU20-CORP-5254 113.192 2020-08-08 10:02:20.700 1307.677 00:13:47
130 TOPIGEONUSA AU20-CORP-4881 116.048 2020-08-08 10:06:13.523 1307.373 00:14:10
131 HENDRICKSON FAMILY LOFT AU20-CORP-5265 113.192 2020-08-08 10:02:27.359 1306.725 00:13:53
132 TOPIGEONUSA AU20-CORP-4862 116.048 2020-08-08 10:06:18.756 1306.643 00:14:15
133 TOPIGEONUSA AU20-CORP-4869 116.048 2020-08-08 10:06:24.915 1305.786 00:14:21
134 AMERICAN LOFT AU20-CORP-5461 113.112 2020-08-08 10:02:45.974 1303.144 00:14:18
135 AMERICAN LOFT AU20-CORP-5469 113.112 2020-08-08 10:02:46.330 1303.094 00:14:18
136 AMERICAN LOFT AU20-CORP-5493 113.112 2020-08-08 10:02:48.120 1302.839 00:14:20
137 AMERICAN LOFT AU20-CORP-5506 113.112 2020-08-08 10:02:53.364 1302.095 00:14:25
138 AMERICAN LOFT AU20-CORP-5497 113.112 2020-08-08 10:02:54.271 1301.966 00:14:26
139 AMERICAN LOFT AU20-CORP-5423 113.112 2020-08-08 10:02:56.202 1301.692 00:14:28
140 HENDRICKSON FAMILY LOFT IF20-EART-0017 113.192 2020-08-08 10:03:02.799 1301.682 00:14:29
141 AMERICAN LOFT AU20-CORP-5515 113.112 2020-08-08 10:02:56.565 1301.640 00:14:29
142 AMERICAN LOFT AU20-CORP-5554 113.112 2020-08-08 10:03:05.828 1300.328 00:14:38
143 AMERICAN LOFT AU20-CORP-5455 113.112 2020-08-08 10:03:07.653 1300.069 00:14:40
144 AMERICAN LOFT AU20-CORP-5417 113.112 2020-08-08 10:03:09.913 1299.750 00:14:42
145 RUETER FAMILY LOFT AU20-CORP-4627 143.014 2020-08-08 10:43:46.586 1298.945 00:18:42
146 STEELE LOFT AU20-CORP-5021 116.355 2020-08-08 10:07:58.007 1296.379 00:15:32
147 STEELE LOFT IF20-EART-0053 116.355 2020-08-08 10:07:58.602 1296.297 00:15:32
147 HENDRICKSON FAMILY LOFT AU20-CORP-5273 113.192 2020-08-08 10:03:40.947 1296.297 00:15:07
148 STEELE LOFT AU20-CORP-5017 116.355 2020-08-08 10:08:00.557 1296.030 00:15:34
149 TIM GRAVES AU20-CORP-4704 107.552 2020-08-08 09:56:07.897 1295.349 00:14:28
150 STEELE LOFT AU20-CORP-5003 116.355 2020-08-08 10:08:16.585 1293.843 00:15:50
151 STEELE LOFT AU20-CORP-5008 116.355 2020-08-08 10:08:19.811 1293.403 00:15:54
152 RUETER FAMILY LOFT AU20-CORP-4676 143.014 2020-08-08 10:44:38.413 1293.181 00:19:34
153 AMERICAN LOFT AU20-CORP-5494 113.112 2020-08-08 10:04:11.687 1291.071 00:15:44
154 AMERICAN LOFT AU20-CORP-5579 113.112 2020-08-08 10:04:12.967 1290.893 00:15:45
155 AMERICAN LOFT AU20-CORP-5502 113.112 2020-08-08 10:04:13.332 1290.842 00:15:45
156 RUETER FAMILY LOFT AU20-CORP-4626 143.014 2020-08-08 10:45:14.896 1289.153 00:20:11
157 RUETER FAMILY LOFT AU20-CORP-4595 143.014 2020-08-08 10:45:31.581 1287.320 00:20:27
158 RUETER FAMILY LOFT AU20-CORP-4603 143.014 2020-08-08 10:45:32.746 1287.192 00:20:28
159 RUETER FAMILY LOFT AU20-CORP-4684 143.014 2020-08-08 10:45:40.841 1286.305 00:20:37
160 STEELE LOFT AU20-ARPU-37451 116.355 2020-08-08 10:09:36.298 1283.073 00:17:10
161 TOPIGEONUSA AU20-CORP-4860 116.048 2020-08-08 10:09:57.940 1276.804 00:17:54
162 RUETER FAMILY LOFT AU20-CORP-4545 143.014 2020-08-08 10:47:27.630 1274.711 00:22:23
163 RUETER FAMILY LOFT AU20-CORP-4648 143.014 2020-08-08 10:47:40.986 1273.275 00:22:37
164 RUETER FAMILY LOFT AU20-CORP-4635 143.014 2020-08-08 10:48:13.233 1269.823 00:23:09
165 RUETER FAMILY LOFT AU20-CORP-4646 143.014 2020-08-08 10:48:55.840 1265.290 00:23:52
166 AMERICAN LOFT AU20-CORP-5445 113.112 2020-08-08 10:07:22.958 1264.920 00:18:55
167 AMERICAN LOFT AU20-CORP-5556 113.112 2020-08-08 10:07:26.361 1264.464 00:18:58
168 HENDRICKSON FAMILY LOFT AU20-CORP-5270 113.192 2020-08-08 10:07:36.364 1264.025 00:19:02
169 AMERICAN LOFT AU20-CORP-5575 113.112 2020-08-08 10:08:05.824 1259.204 00:19:38
170 STEELE LOFT AU20-CORP-5006 116.355 2020-08-08 10:13:28.118 1252.747 00:21:02
171 STEELE LOFT AU20-ARPU-37452 116.355 2020-08-08 10:13:28.475 1252.701 00:21:02
172 STEELE LOFT AU20-CORP-5018 116.355 2020-08-08 10:13:43.439 1250.793 00:21:17
173 HENDRICKSON FAMILY LOFT IF20-EART-0023 113.192 2020-08-08 10:10:34.819 1240.613 00:22:01
174 HENDRICKSON FAMILY LOFT AU20-CORP-5256 113.192 2020-08-08 10:10:37.980 1240.206 00:22:04
175 RUETER FAMILY LOFT AU20-CORP-4649 143.014 2020-08-08 10:52:58.471 1240.082 00:27:54
176 HENDRICKSON FAMILY LOFT AU20-CORP-5280 113.192 2020-08-08 10:10:41.332 1239.775 00:22:07
177 AMERICAN LOFT AU20-CORP-5454 113.112 2020-08-08 10:10:39.473 1239.133 00:22:11
178 HENDRICKSON FAMILY LOFT AU20-CORP-5266 113.192 2020-08-08 10:10:46.712 1239.084 00:22:13
179 AMERICAN LOFT AU20-CORP-5426 113.112 2020-08-08 10:10:41.546 1238.866 00:22:14
180 AMERICAN LOFT AU20-CORP-5466 113.112 2020-08-08 10:10:44.194 1238.526 00:22:16
181 AMERICAN LOFT AU20-CORP-5415 113.112 2020-08-08 10:10:44.568 1238.478 00:22:17
182 AMERICAN LOFT AU20-CORP-5441 113.112 2020-08-08 10:10:48.187 1238.014 00:22:20
183 AMERICAN LOFT AU20-CORP-5530 113.112 2020-08-08 10:10:48.814 1237.933 00:22:21
184 AMERICAN LOFT AU20-CORP-5488 113.112 2020-08-08 10:10:54.378 1237.220 00:22:26
185 AMERICAN LOFT AU20-CORP-5487 113.112 2020-08-08 10:10:57.791 1236.783 00:22:30
186 AMERICAN LOFT AU20-CORP-5518 113.112 2020-08-08 10:11:00.190 1236.475 00:22:32
187 AMERICAN LOFT AU20-CORP-5478 113.112 2020-08-08 10:11:04.372 1235.940 00:22:36
188 TOPIGEONUSA AU20-CORP-4376 116.048 2020-08-08 10:15:53.782 1231.159 00:23:50
189 AMERICAN LOFT AU20-CORP-5492 113.112 2020-08-08 10:12:23.944 1225.847 00:23:56
190 AMERICAN LOFT AU20-CORP-5409 113.112 2020-08-08 10:12:26.080 1225.579 00:23:58
191 RUETER FAMILY LOFT AU20-CORP-4517 143.014 2020-08-08 10:55:25.982 1225.241 00:30:22
192 HENDRICKSON FAMILY LOFT AU20-CORP-5263 113.192 2020-08-08 10:12:54.884 1222.837 00:24:21
193 RUETER FAMILY LOFT AU20-CORP-4529 143.014 2020-08-08 10:55:57.425 1222.123 00:30:53
194 RUETER FAMILY LOFT AU20-CORP-4515 143.014 2020-08-08 10:55:59.383 1221.930 00:30:55
195 ROCKY TOP AU20-CORP-4477 108.983 2020-08-08 10:08:05.747 1213.254 00:24:41
196 TOPIGEONUSA AU20-CORP-4383 116.048 2020-08-08 10:18:24.960 1212.740 00:26:21
197 TOPIGEONUSA AU20-CORP-4385 116.048 2020-08-08 10:18:40.085 1210.928 00:26:36
198 HENDRICKSON FAMILY LOFT AU20-CORP-5257 113.192 2020-08-08 10:18:05.906 1185.128 00:29:32
199 JACKSONS LOFT AU20-CORP-4647 87.585 2020-08-08 09:42:43.199 1161.468 00:25:30
200 JACKSONS LOFT AU20-CORP-5524 87.585 2020-08-08 09:42:45.286 1161.164 00:25:32
201 JACKSONS LOFT AU20-CORP-5528 87.585 2020-08-08 09:42:50.075 1160.466 00:25:37
202 JACKSONS LOFT AU20-CORP-5529 87.585 2020-08-08 09:42:56.566 1159.522 00:25:43
203 AMERICAN LOFT AU20-CORP-5448 113.112 2020-08-08 10:24:30.698 1140.763 00:36:03
204 AMERICAN LOFT AU20-CORP-5510 113.112 2020-08-08 10:24:40.925 1139.650 00:36:13
205 TOPIGEONUSA AU20-CORP-4849 116.048 2020-08-08 10:29:13.277 1139.624 00:37:10
206 AMERICAN LOFT AU20-CORP-5489 113.112 2020-08-08 10:24:42.313 1139.499 00:36:14
207 TOPIGEONUSA AU20-CORP-4360 116.048 2020-08-08 10:29:16.788 1139.252 00:37:13
208 AMERICAN LOFT AU20-CORP-5421 113.112 2020-08-08 10:25:28.665 1134.483 00:37:01
209 RUETER FAMILY LOFT AU20-CORP-4682 143.014 2020-08-08 11:12:15.997 1132.446 00:47:12
210 TOPIGEONUSA AU20-CORP-4300 116.048 2020-08-08 10:30:30.424 1131.506 00:38:27
211 TOPIGEONUSA AU20-CORP-4898 116.048 2020-08-08 10:30:43.384 1130.154 00:38:40
212 JACKSONS LOFT AU20-CORP-5201 87.585 2020-08-08 09:46:34.724 1128.653 00:29:22
213 TOPIGEONUSA AU20-CORP-4389 116.048 2020-08-08 10:34:15.585 1108.462 00:42:12
214 TOPIGEONUSA AU20-CORP-4863 116.048 2020-08-08 10:34:17.817 1108.238 00:42:14
215 STEELE LOFT AU20-ARPU-37461 116.355 2020-08-08 10:35:21.375 1104.817 00:42:55
216 STEELE LOFT AU20-CORP-5029 116.355 2020-08-08 10:35:27.408 1104.218 00:43:01
217 TOPIGEONUSA AU20-CORP-4372 116.048 2020-08-08 10:34:59.823 1104.044 00:42:56
218 TOPIGEONUSA AU20-CORP-4377 116.048 2020-08-08 10:35:15.540 1102.483 00:43:12
219 STEELE LOFT AU20-CORP-5040 116.355 2020-08-08 10:37:58.793 1089.397 00:45:33
220 HENDRICKSON FAMILY LOFT IF20-EART-0005 113.192 2020-08-08 10:32:54.081 1089.211 00:44:20
221 TOPIGEONUSA AU20-CORP-4390 116.048 2020-08-08 10:38:34.823 1083.065 00:46:31
222 TIM GRAVES AU20-CORP-4720 107.552 2020-08-08 10:24:49.087 1082.791 00:43:09
223 RUETER FAMILY LOFT AU20-CORP-4526 143.014 2020-08-08 11:23:59.666 1075.688 00:58:55
224 RUETER FAMILY LOFT AU20-CORP-4572 143.014 2020-08-08 11:39:41.957 1008.032 01:14:38
225 RUETER FAMILY LOFT AU20-CORP-4544 143.014 2020-08-08 11:43:16.304 993.814 01:18:12
226 RUETER FAMILY LOFT AU20-CORP-4651 143.014 2020-08-08 11:44:52.550 987.559 01:19:48
227 JACKSONS LOFT AU20-CORP-5534 87.585 2020-08-08 10:08:44.582 971.066 00:51:31
228 HENDRICKSON FAMILY LOFT AU20-CORP-5252 113.192 2020-08-08 10:57:37.325 959.523 01:09:03
229 AMERICAN LOFT AU20-CORP-5577 113.112 2020-08-08 11:12:28.239 894.844 01:24:00
230 AMERICAN LOFT AU20-CORP-5565 113.112 2020-08-08 11:12:38.447 894.160 01:24:10
231 STEELE LOFT AU20-CORP-5030 116.355 2020-08-08 11:27:46.983 861.225 01:35:21
232 TIM GRAVES AU20-CORP-4705 107.552 2020-08-08 11:09:52.259 860.921 01:28:13
233 STEELE LOFT AU20-JEDD-1090 116.355 2020-08-08 11:28:53.003 857.258 01:36:27
234 ROCKY TOP AU20-CORP-4456 108.983 2020-08-08 11:14:20.304 855.005 01:30:56
235 HENDRICKSON FAMILY LOFT AU20-CORP-5285 113.192 2020-08-08 11:29:34.232 831.563 01:41:00
236 TOPIGEONUSA AU20-CORP-4394 116.048 2020-08-08 11:38:40.241 821.347 01:46:37
237 JACKSONS LOFT AU20-CORP-5472 87.585 2020-08-08 10:58:02.919 740.933 01:40:50
238 AMERICAN LOFT AU20-CORP-5481 113.112 2020-08-08 12:17:19.316 692.869 02:28:51
239 HENDRICKSON FAMILY LOFT AU20-CORP-5283 113.192 2020-08-08 12:40:30.158 641.599 02:51:56
240 HENDRICKSON FAMILY LOFT AU20-CORP-5274 113.192 2020-08-08 12:49:50.693 622.858 03:01:17
241 AMERICAN LOFT AU20-CORP-5498 113.112 2020-08-08 13:26:05.754 559.053 03:37:38
242 HENDRICKSON FAMILY LOFT AU20-CORP-5253 113.192 2020-08-08 16:12:06.299 381.567 06:23:32
243 AMERICAN LOFT AU20-CORP-5560 113.112 2020-08-08 17:15:43.208 339.883 07:27:15
244 ROCKY TOP AU20-ARPU-28116 108.983 2020-08-08 18:12:23.570 298.587 08:28:59
245 JACKSONS LOFT AU20-CORP-4660 87.585 2020-08-08 17:41:06.307 252.248 08:23:53
246 STEELE LOFT AU20-PNW-2166 116.355 2020-08-09 08:26:25.683 211.855 13:44:11
247 JACKSONS LOFT AU20-CORP-4650 87.585 2020-08-09 08:33:20.198 158.340 14:26:19
248 HENDRICKSON FAMILY LOFT AU20-ARPU-28119 113.192 2020-08-09 17:51:16.401 130.083 23:12:54
AMERICAN LOFT AU20-CORP-5400 0 0000-00-00 00:00:00.000 0.000 00:00:00
AMERICAN LOFT AU20-CORP-5420 0 0000-00-00 00:00:00.000 0.000 00:00:00
AMERICAN LOFT AU20-CORP-5429 0 0000-00-00 00:00:00.000 0.000 00:00:00
AMERICAN LOFT AU20-CORP-5471 0 0000-00-00 00:00:00.000 0.000 00:00:00
AMERICAN LOFT AU20-CORP-5486 0 0000-00-00 00:00:00.000 0.000 00:00:00
AMERICAN LOFT AU20-CORP-5555 0 0000-00-00 00:00:00.000 0.000 00:00:00
ROCKY TOP AU20-ARPU-28130 0 0000-00-00 00:00:00.000 0.000 00:00:00
ROCKY TOP AU20-TAC-2762 0 0000-00-00 00:00:00.000 0.000 00:00:00
ROCKY TOP AU20-TAC-2764 0 0000-00-00 00:00:00.000 0.000 00:00:00
ROCKY TOP AU20-TAC-2774 0 0000-00-00 00:00:00.000 0.000 00:00:00
RUETER FAMILY LOFT AU20-CORP-4523 0 0000-00-00 00:00:00.000 0.000 00:00:00
RUETER FAMILY LOFT AU20-CORP-4548 0 0000-00-00 00:00:00.000 0.000 00:00:00
RUETER FAMILY LOFT AU20-CORP-4643 0 0000-00-00 00:00:00.000 0.000 00:00:00
STEELE LOFT AU20-ARPU-37458 0 0000-00-00 00:00:00.000 0.000 00:00:00
STEELE LOFT AU20-CORP-5013 0 0000-00-00 00:00:00.000 0.000 00:00:00
STEELE LOFT AU20-CORP-5044 0 0000-00-00 00:00:00.000 0.000 00:00:00
STEELE LOFT AU20-JEDD-14784 0 0000-00-00 00:00:00.000 0.000 00:00:00
TOPIGEONUSA AU19-CORP-4972 0 0000-00-00 00:00:00.000 0.000 00:00:00
TOPIGEONUSA AU20-CORP-4380 0 0000-00-00 00:00:00.000 0.000 00:00:00
TOPIGEONUSA AU20-CORP-4857 0 0000-00-00 00:00:00.000 0.000 00:00:00
TOPIGEONUSA AU20-CORP-4865 0 0000-00-00 00:00:00.000 0.000 00:00:00